createdAt,value
2018-08-16T00:01:33.785Z,3.50
2018-08-16T00:04:03.398Z,4.10
2018-08-16T00:06:32.433Z,3.73
2018-08-16T00:09:01.710Z,4.20
2018-08-16T00:11:31.232Z,2.93
2018-08-16T00:14:00.735Z,4.07
2018-08-16T00:16:30.496Z,4.20
2018-08-16T00:18:59.849Z,3.77
2018-08-16T00:21:29.397Z,4.93
2018-08-16T00:23:58.508Z,4.17
2018-08-16T00:26:27.564Z,4.47
2018-08-16T00:28:56.536Z,4.03
2018-08-16T00:31:25.969Z,4.37
2018-08-16T00:33:55.378Z,3.80
2018-08-16T00:36:24.829Z,4.60
2018-08-16T00:38:54.324Z,3.80
2018-08-16T00:41:23.625Z,3.70
2018-08-16T00:43:52.970Z,4.30
2018-08-16T00:46:22.437Z,3.70
2018-08-16T00:48:51.830Z,3.10
2018-08-16T00:51:21.064Z,3.30
2018-08-16T00:53:51.094Z,3.20
2018-08-16T00:56:20.471Z,3.43
2018-08-16T00:58:49.968Z,4.10
2018-08-16T01:01:19.019Z,4.30
2018-08-16T01:03:48.321Z,4.00
2018-08-16T01:06:17.893Z,3.47
2018-08-16T01:08:47.284Z,3.57
2018-08-16T01:11:16.948Z,2.97
2018-08-16T01:13:46.378Z,3.80
2018-08-16T01:16:15.349Z,3.70
2018-08-16T01:18:45.004Z,3.37
2018-08-16T01:21:14.716Z,4.00
2018-08-16T01:23:44.112Z,4.43
2018-08-16T01:26:13.469Z,3.60
2018-08-16T01:28:42.929Z,4.30
2018-08-16T01:31:12.451Z,4.40
2018-08-16T01:33:42.996Z,4.10
2018-08-16T01:36:12.350Z,4.30
2018-08-16T01:38:41.860Z,3.60
2018-08-16T01:41:11.267Z,4.30
2018-08-16T01:43:40.607Z,3.97
2018-08-16T01:46:10.191Z,3.60
2018-08-16T01:48:39.541Z,3.63
2018-08-16T01:51:08.815Z,3.50
2018-08-16T01:53:38.202Z,3.33
2018-08-16T01:56:07.434Z,4.27
2018-08-16T01:58:36.818Z,4.17
2018-08-16T02:01:06.148Z,4.00
2018-08-16T02:03:35.617Z,3.83
2018-08-16T02:06:04.895Z,3.93
2018-08-16T02:08:34.263Z,4.43
2018-08-16T02:11:03.614Z,3.40
2018-08-16T02:13:33.057Z,3.90
2018-08-16T02:16:02.360Z,4.30
2018-08-16T02:18:32.230Z,3.63
2018-08-16T02:21:01.575Z,4.43
2018-08-16T02:23:31.234Z,3.83
2018-08-16T02:26:00.654Z,4.50
2018-08-16T02:28:29.705Z,3.43
2018-08-16T02:30:58.816Z,3.43
2018-08-16T02:33:28.081Z,3.23
2018-08-16T02:35:57.226Z,3.20
2018-08-16T02:38:26.416Z,3.43
2018-08-16T02:40:55.430Z,3.83
2018-08-16T02:43:24.443Z,3.80
2018-08-16T02:45:53.425Z,3.13
2018-08-16T02:48:22.438Z,4.03
2018-08-16T02:50:51.513Z,3.53
2018-08-16T02:53:20.491Z,4.10
2018-08-16T02:55:49.666Z,3.30
2018-08-16T02:58:18.842Z,3.77
2018-08-16T03:00:47.949Z,3.33
2018-08-16T03:03:17.147Z,4.20
2018-08-16T03:05:46.363Z,3.93
2018-08-16T03:08:15.478Z,3.20
2018-08-16T03:10:44.581Z,4.47
2018-08-16T03:13:13.563Z,3.50
2018-08-16T03:15:42.582Z,3.63
2018-08-16T03:18:11.638Z,3.70
2018-08-16T03:20:40.703Z,4.53
2018-08-16T03:23:09.707Z,3.57
2018-08-16T03:25:38.747Z,4.10
2018-08-16T03:28:07.955Z,4.03
2018-08-16T03:30:37.046Z,3.50
2018-08-16T03:33:06.467Z,4.47
2018-08-16T03:35:35.496Z,4.17
2018-08-16T03:38:04.524Z,3.90
2018-08-16T03:40:33.691Z,4.37
2018-08-16T03:43:02.722Z,3.90
2018-08-16T03:45:31.792Z,3.97
2018-08-16T03:48:00.896Z,3.83
2018-08-16T03:50:29.849Z,3.83
2018-08-16T03:52:58.894Z,3.40
2018-08-16T03:55:27.895Z,3.83
2018-08-16T03:57:56.963Z,4.20
2018-08-16T04:00:25.936Z,4.23
2018-08-16T04:02:54.969Z,3.20
2018-08-16T04:05:23.971Z,4.17
2018-08-16T04:07:53.387Z,3.43
2018-08-16T04:10:22.837Z,4.17
2018-08-16T04:12:52.101Z,3.77
2018-08-16T04:15:21.681Z,3.97
2018-08-16T04:17:51.220Z,5.30
2018-08-16T04:20:20.561Z,6.03
2018-08-16T04:22:49.899Z,6.90
2018-08-16T04:25:19.277Z,7.03
2018-08-16T04:27:49.457Z,4.83
2018-08-16T04:30:18.472Z,5.33
2018-08-16T04:32:47.491Z,5.37
2018-08-16T04:35:16.673Z,4.70
2018-08-16T04:37:45.999Z,4.90
2018-08-16T04:40:15.191Z,5.07
2018-08-16T04:42:44.840Z,3.97
2018-08-16T04:45:14.155Z,4.13
2018-08-16T04:47:43.485Z,5.17
2018-08-16T04:50:13.474Z,3.47
2018-08-16T04:52:42.879Z,4.23
2018-08-16T04:55:12.570Z,3.87
2018-08-16T04:57:41.932Z,3.30
2018-08-16T05:00:12.998Z,3.83
2018-08-16T05:02:42.283Z,4.57
2018-08-16T05:05:12.840Z,6.60
2018-08-16T05:07:41.980Z,13.00
2018-08-16T05:10:11.926Z,7.30
2018-08-16T05:12:41.241Z,6.00
2018-08-16T05:15:12.345Z,6.10
2018-08-16T05:17:41.774Z,6.60
2018-08-16T05:20:12.993Z,5.90
2018-08-16T05:22:42.514Z,9.40
2018-08-16T05:25:11.600Z,7.67
2018-08-16T05:27:40.683Z,6.10
2018-08-16T05:30:11.702Z,6.10
2018-08-16T05:32:40.842Z,6.63
2018-08-16T05:35:09.988Z,5.50
2018-08-16T05:37:39.366Z,6.80
2018-08-16T05:40:09.931Z,5.20
2018-08-16T05:42:39.460Z,5.93
2018-08-16T05:45:09.967Z,5.87
2018-08-16T05:47:39.116Z,4.83
2018-08-16T05:50:14.847Z,5.90
2018-08-16T05:52:43.989Z,6.70
2018-08-16T05:55:13.190Z,5.70
2018-08-16T05:57:42.304Z,5.00
2018-08-16T06:00:13.632Z,4.93
2018-08-16T06:02:42.923Z,6.00
2018-08-16T06:05:12.809Z,5.10
2018-08-16T06:07:41.911Z,6.10
2018-08-16T06:10:12.032Z,4.27
2018-08-16T06:12:41.077Z,4.93
2018-08-16T06:15:10.512Z,5.20
2018-08-16T06:17:39.642Z,6.00
2018-08-16T06:20:11.025Z,5.50
2018-08-16T06:22:40.454Z,5.23
2018-08-16T06:25:11.896Z,6.10
2018-08-16T06:27:41.051Z,5.47
2018-08-16T06:30:14.542Z,5.60
2018-08-16T06:32:44.742Z,5.70
2018-08-16T06:35:13.897Z,5.40
2018-08-16T06:37:43.005Z,5.70
2018-08-16T06:40:16.643Z,4.90
2018-08-16T06:42:46.875Z,5.47
2018-08-16T06:45:16.117Z,5.13
2018-08-16T06:47:45.223Z,6.10
2018-08-16T06:50:14.333Z,5.50
2018-08-16T06:52:43.825Z,5.00
2018-08-16T06:55:13.005Z,5.60
2018-08-16T06:57:42.111Z,4.33
2018-08-16T07:00:11.304Z,5.77
2018-08-16T07:02:40.509Z,4.43
2018-08-16T07:05:10.519Z,4.70
2018-08-16T07:07:39.607Z,3.80
2018-08-16T07:10:10.411Z,4.43
2018-08-16T07:12:39.531Z,4.83
2018-08-16T07:15:11.471Z,4.10
2018-08-16T07:17:40.739Z,4.53
2018-08-16T07:20:09.825Z,3.93
2018-08-16T07:22:38.932Z,4.43
2018-08-16T07:25:08.905Z,4.40
2018-08-16T07:27:37.990Z,3.47
2018-08-16T07:30:08.648Z,4.13
2018-08-16T07:32:37.852Z,4.00
2018-08-16T07:35:07.804Z,4.60
2018-08-16T07:37:36.906Z,3.57
2018-08-16T07:40:06.858Z,3.93
2018-08-16T07:42:35.901Z,3.63
2018-08-16T07:45:05.882Z,4.13
2018-08-16T07:47:35.597Z,4.37
2018-08-16T07:50:06.080Z,3.40
2018-08-16T07:52:35.261Z,3.43
2018-08-16T07:55:04.724Z,3.80
2018-08-16T07:57:34.278Z,3.60
2018-08-16T08:00:04.257Z,3.60
2018-08-16T08:02:33.701Z,3.83
2018-08-16T08:05:03.036Z,4.07
2018-08-16T08:07:32.292Z,3.27
2018-08-16T08:10:02.647Z,3.10
2018-08-16T08:12:31.935Z,3.37
2018-08-16T08:15:01.338Z,2.80
2018-08-16T08:17:30.921Z,2.40
2018-08-16T08:20:00.490Z,3.40
2018-08-16T08:22:29.938Z,3.43
2018-08-16T08:25:02.298Z,4.20
2018-08-16T08:27:31.912Z,3.90
2018-08-16T08:30:01.899Z,4.33
2018-08-16T08:32:31.164Z,4.10
2018-08-16T08:35:01.171Z,2.43
2018-08-16T08:38:11.689Z,3.30
2018-08-16T08:40:40.753Z,3.53
2018-08-16T08:43:09.960Z,3.20
2018-08-16T08:45:39.287Z,3.37
2018-08-16T08:48:08.383Z,3.30
2018-08-16T08:50:37.581Z,3.30
2018-08-16T08:53:18.058Z,3.37
2018-08-16T08:55:58.154Z,3.63
2018-08-16T08:58:38.295Z,3.70
2018-08-16T09:01:07.936Z,4.53
2018-08-16T09:03:37.525Z,4.00
2018-08-16T09:06:07.248Z,3.63
2018-08-16T09:08:36.782Z,3.33
2018-08-16T09:11:18.578Z,4.00
2018-08-16T09:13:59.784Z,3.47
2018-08-16T09:16:30.821Z,3.17
2018-08-16T09:19:00.247Z,3.20
2018-08-16T09:21:30.405Z,2.90
2018-08-16T09:23:59.929Z,3.40
2018-08-16T09:26:34.387Z,3.23
2018-08-16T09:29:08.086Z,3.23
2018-08-16T09:32:07.235Z,3.50
2018-08-16T09:34:36.305Z,3.47
2018-08-16T09:37:06.803Z,3.57
2018-08-16T09:39:35.991Z,3.67
2018-08-16T09:42:05.035Z,3.70
2018-08-16T09:44:33.982Z,3.30
2018-08-16T09:47:15.044Z,3.40
2018-08-16T09:49:46.176Z,3.30
2018-08-16T09:52:17.376Z,3.40
2018-08-16T09:54:47.010Z,2.80
2018-08-16T09:57:16.795Z,3.60
2018-08-16T09:59:46.290Z,2.60
2018-08-16T10:02:16.939Z,2.30
2018-08-16T10:04:46.154Z,2.67
2018-08-16T10:07:16.786Z,1.73
2018-08-16T10:09:46.433Z,1.73
2018-08-16T10:12:15.842Z,2.40
2018-08-16T10:14:45.908Z,2.53
2018-08-16T10:17:15.225Z,2.23
2018-08-16T10:19:44.590Z,1.90
2018-08-16T10:22:14.083Z,2.23
2018-08-16T10:24:43.478Z,2.20
2018-08-16T10:27:12.909Z,2.00
2018-08-16T10:29:42.382Z,2.27
2018-08-16T10:32:11.846Z,2.13
2018-08-16T10:34:41.383Z,2.00
2018-08-16T10:37:11.735Z,2.67
2018-08-16T10:39:41.136Z,2.00
2018-08-16T10:42:10.894Z,1.50
2018-08-16T10:44:40.434Z,2.10
2018-08-16T10:47:09.968Z,2.00
2018-08-16T10:49:39.298Z,2.37
2018-08-16T10:52:08.340Z,2.03
2018-08-16T10:54:37.611Z,1.93
2018-08-16T10:57:07.045Z,1.97
2018-08-16T10:59:36.213Z,1.50
2018-08-16T11:02:05.790Z,1.80
2018-08-16T11:04:34.874Z,1.37
2018-08-16T11:07:03.948Z,1.83
2018-08-16T11:09:33.093Z,2.53
2018-08-16T11:12:02.200Z,1.67
2018-08-16T11:14:31.811Z,1.93
2018-08-16T11:17:00.974Z,3.00
2018-08-16T11:19:30.152Z,1.23
2018-08-16T11:21:59.373Z,1.50
2018-08-16T11:24:28.395Z,1.83
2018-08-16T11:26:58.498Z,1.40
2018-08-16T11:29:27.747Z,1.97
2018-08-16T11:31:56.874Z,1.57
2018-08-16T11:34:26.124Z,1.40
2018-08-16T11:36:55.683Z,2.10
2018-08-16T11:39:24.794Z,1.23
2018-08-16T11:41:54.053Z,1.33
2018-08-16T11:44:23.409Z,1.43
2018-08-16T11:46:53.510Z,1.20
2018-08-16T11:49:23.097Z,1.67
2018-08-16T11:51:53.479Z,1.33
2018-08-16T11:54:22.944Z,1.80
2018-08-16T11:56:52.488Z,1.80
2018-08-16T11:59:21.646Z,1.50
2018-08-16T12:01:50.823Z,1.23
2018-08-16T12:04:19.924Z,1.50
2018-08-16T12:06:48.975Z,1.40
2018-08-16T12:09:17.958Z,1.90
2018-08-16T12:11:47.058Z,1.50
2018-08-16T12:14:16.191Z,1.60
2018-08-16T12:16:45.244Z,1.27
2018-08-16T12:19:14.295Z,1.23
2018-08-16T12:21:43.359Z,1.30
2018-08-16T12:24:12.465Z,1.50
2018-08-16T12:26:41.446Z,1.07
2018-08-16T12:29:10.554Z,1.33
2018-08-16T12:31:40.152Z,1.47
2018-08-16T12:34:10.135Z,1.40
2018-08-16T12:36:39.246Z,1.20
2018-08-16T12:39:08.427Z,1.53
2018-08-16T12:41:38.535Z,1.60
2018-08-16T12:44:07.622Z,1.53
2018-08-16T12:46:36.686Z,1.27
2018-08-16T12:49:05.835Z,1.33
2018-08-16T12:51:35.063Z,1.27
2018-08-16T12:54:04.252Z,1.30
2018-08-16T12:56:33.720Z,1.10
2018-08-16T12:59:02.974Z,1.30
2018-08-16T13:01:33.049Z,1.60
2018-08-16T13:04:02.531Z,1.17
2018-08-16T13:06:31.940Z,1.17
2018-08-16T13:09:01.380Z,1.23
2018-08-16T13:11:30.656Z,1.20
2018-08-16T13:14:00.052Z,0.97
2018-08-16T13:16:29.537Z,1.33
2018-08-16T13:18:59.048Z,0.90
2018-08-16T13:21:28.393Z,1.33
2018-08-16T13:23:57.915Z,1.30
2018-08-16T13:26:27.341Z,1.50
2018-08-16T13:28:56.708Z,1.30
2018-08-16T13:31:26.469Z,1.30
2018-08-16T13:33:56.573Z,1.30
2018-08-16T13:36:25.891Z,1.70
2018-08-16T13:38:55.656Z,1.40
2018-08-16T13:41:24.959Z,1.33
2018-08-16T13:43:54.306Z,1.27
2018-08-16T13:46:24.814Z,2.00
2018-08-16T13:48:54.574Z,1.03
2018-08-16T13:51:23.792Z,1.47
2018-08-16T13:53:53.162Z,1.10
2018-08-16T13:56:22.455Z,0.97
2018-08-16T13:58:52.140Z,1.10
2018-08-16T14:01:21.528Z,1.30
2018-08-16T14:03:52.108Z,1.53
2018-08-16T14:06:22.124Z,1.50
2018-08-16T14:08:51.677Z,1.60
2018-08-16T14:11:21.524Z,1.10
2018-08-16T14:13:50.950Z,1.17
2018-08-16T14:16:20.386Z,1.50
2018-08-16T14:18:49.804Z,1.73
2018-08-16T14:21:19.083Z,1.27
2018-08-16T14:23:48.538Z,1.00
2018-08-16T14:26:18.052Z,1.57
2018-08-16T14:28:47.421Z,2.00
2018-08-16T14:31:16.825Z,1.30
2018-08-16T14:33:47.180Z,1.60
2018-08-16T14:36:16.722Z,1.90
2018-08-16T14:38:46.132Z,1.70
2018-08-16T14:41:15.603Z,1.30
2018-08-16T14:43:44.878Z,1.40
2018-08-16T14:46:14.436Z,1.13
2018-08-16T14:48:43.817Z,1.40
2018-08-16T14:51:13.133Z,1.53
2018-08-16T14:53:42.319Z,1.33
2018-08-16T14:56:12.022Z,1.60
2018-08-16T14:58:41.463Z,1.40
2018-08-16T15:01:11.182Z,1.63
2018-08-16T15:03:40.731Z,1.30
2018-08-16T15:06:10.006Z,1.50
2018-08-16T15:08:39.650Z,1.50
2018-08-16T15:11:09.437Z,1.60
2018-08-16T15:13:39.802Z,1.00
2018-08-16T15:16:09.246Z,1.33
2018-08-16T15:18:38.624Z,1.43
2018-08-16T15:21:07.997Z,1.57
2018-08-16T15:23:37.358Z,1.50
2018-08-16T15:26:06.796Z,1.33
2018-08-16T15:28:37.143Z,1.20
2018-08-16T15:31:07.049Z,1.40
2018-08-16T15:33:36.344Z,1.23
2018-08-16T15:36:05.609Z,1.30
2018-08-16T15:38:35.205Z,1.00
2018-08-16T15:41:04.882Z,1.70
2018-08-16T15:43:35.419Z,1.97
2018-08-16T15:46:04.902Z,1.23
2018-08-16T15:48:34.264Z,1.30
2018-08-16T15:51:03.732Z,2.10
2018-08-16T15:53:33.132Z,1.43
2018-08-16T15:56:02.127Z,1.37
2018-08-16T15:58:31.218Z,1.67
2018-08-16T16:01:00.441Z,1.30
2018-08-16T16:03:29.557Z,2.03
2018-08-16T16:05:58.741Z,1.50
2018-08-16T16:08:27.801Z,1.63
2018-08-16T16:10:56.786Z,2.07
2018-08-16T16:13:25.809Z,1.37
2018-08-16T16:15:54.890Z,2.10
2018-08-16T16:18:24.001Z,1.43
2018-08-16T16:20:53.107Z,1.60
2018-08-16T16:23:22.161Z,1.40
2018-08-16T16:25:51.251Z,1.30
2018-08-16T16:28:20.389Z,1.70
2018-08-16T16:30:49.471Z,1.77
2018-08-16T16:33:18.713Z,1.60
2018-08-16T16:35:48.150Z,1.70
2018-08-16T16:38:17.311Z,1.77
2018-08-16T16:40:46.306Z,2.10
2018-08-16T16:43:15.766Z,1.73
2018-08-16T16:45:44.771Z,1.50
2018-08-16T16:48:13.815Z,2.73
2018-08-16T16:50:42.807Z,1.93
2018-08-16T16:53:11.820Z,1.80
2018-08-16T16:55:40.921Z,1.50
2018-08-16T16:58:09.938Z,2.03
2018-08-16T17:00:39.073Z,1.63
2018-08-16T17:03:08.171Z,2.37
2018-08-16T17:05:38.188Z,1.90
2018-08-16T17:08:07.175Z,1.67
2018-08-16T17:10:37.107Z,2.50
2018-08-16T17:13:06.159Z,2.20
2018-08-16T17:15:35.268Z,2.00
2018-08-16T17:18:04.570Z,1.90
2018-08-16T17:20:33.617Z,2.10
2018-08-16T17:23:02.687Z,1.70
2018-08-16T17:25:31.741Z,2.50
2018-08-16T17:28:00.780Z,1.50
2018-08-16T17:30:29.843Z,1.47
2018-08-16T17:32:58.907Z,2.20
2018-08-16T17:35:28.702Z,1.60
2018-08-16T17:37:57.802Z,2.37
2018-08-16T17:40:26.840Z,2.20
2018-08-16T17:42:55.971Z,1.63
2018-08-16T17:45:25.880Z,2.50
2018-08-16T17:47:54.911Z,1.77
2018-08-16T17:50:23.999Z,1.80
2018-08-16T17:52:53.066Z,2.10
2018-08-16T17:55:22.255Z,2.27
2018-08-16T17:57:51.360Z,2.10
2018-08-16T18:00:20.409Z,2.27
2018-08-16T18:02:50.347Z,2.30
2018-08-16T18:05:19.465Z,2.03
2018-08-16T18:07:48.561Z,2.10
2018-08-16T18:10:17.580Z,2.37
2018-08-16T18:12:46.685Z,2.53
2018-08-16T18:15:15.687Z,2.23
2018-08-16T18:17:45.021Z,2.30
2018-08-16T18:20:17.111Z,2.00
2018-08-16T18:22:46.300Z,2.13
2018-08-16T18:25:15.480Z,2.10
2018-08-16T18:27:44.569Z,2.00
2018-08-16T18:30:13.599Z,1.80
2018-08-16T18:32:43.224Z,2.03
2018-08-16T18:35:12.469Z,2.33
2018-08-16T18:37:41.869Z,2.50
2018-08-16T18:40:11.000Z,2.90
2018-08-16T18:42:40.415Z,1.73
2018-08-16T18:45:09.474Z,2.00
2018-08-16T18:47:38.696Z,1.63
2018-08-16T18:50:07.797Z,2.33
2018-08-16T18:52:36.914Z,2.27
2018-08-16T18:55:07.016Z,2.20
2018-08-16T18:57:36.123Z,1.77
2018-08-16T19:00:06.547Z,2.30
2018-08-16T19:02:35.674Z,2.30
2018-08-16T19:05:06.311Z,2.40
2018-08-16T19:07:35.483Z,2.97
2018-08-16T19:10:04.703Z,2.40
2018-08-16T19:12:33.966Z,2.60
2018-08-16T19:15:03.067Z,2.40
2018-08-16T19:17:32.412Z,2.63
2018-08-16T19:20:01.560Z,2.53
2018-08-16T19:22:31.060Z,2.27
2018-08-16T19:25:00.234Z,2.50
2018-08-16T19:27:29.361Z,2.90
2018-08-16T19:29:59.480Z,3.13
2018-08-16T19:32:28.572Z,2.40
2018-08-16T19:34:57.912Z,2.37
2018-08-16T19:37:26.997Z,2.53
2018-08-16T19:39:56.427Z,2.30
2018-08-16T19:42:25.786Z,2.33
2018-08-16T19:44:55.440Z,2.73
2018-08-16T19:47:24.803Z,2.10
2018-08-16T19:49:54.371Z,2.50
2018-08-16T19:52:24.156Z,2.67
2018-08-16T19:54:53.886Z,2.90
2018-08-16T19:57:23.544Z,2.17
2018-08-16T19:59:52.866Z,2.33
2018-08-16T20:02:22.434Z,2.43
2018-08-16T20:04:52.097Z,3.10
2018-08-16T20:07:21.474Z,2.80
2018-08-16T20:09:51.213Z,3.10
2018-08-16T20:12:20.330Z,2.43
2018-08-16T20:14:49.717Z,3.10
2018-08-16T20:17:19.193Z,3.00
2018-08-16T20:19:48.864Z,2.97
2018-08-16T20:22:21.307Z,2.87
2018-08-16T20:24:50.852Z,2.67
2018-08-16T20:27:20.265Z,3.00
2018-08-16T20:29:51.571Z,2.83
2018-08-16T20:32:32.383Z,2.73
2018-08-16T20:35:01.559Z,3.00
2018-08-16T20:37:31.755Z,2.90
2018-08-16T20:40:00.870Z,2.80
2018-08-16T20:42:30.717Z,3.23
2018-08-16T20:44:59.826Z,2.63
2018-08-16T20:47:28.944Z,3.30
2018-08-16T20:49:58.168Z,2.87
2018-08-16T20:52:27.298Z,3.40
2018-08-16T20:54:57.417Z,3.60
2018-08-16T20:57:26.579Z,2.83
2018-08-16T20:59:55.689Z,3.10
2018-08-16T21:02:24.742Z,3.40
2018-08-16T21:04:53.786Z,2.80
2018-08-16T21:07:23.299Z,3.10
2018-08-16T21:09:52.738Z,3.43
2018-08-16T21:12:22.191Z,2.93
2018-08-16T21:14:51.426Z,3.23
2018-08-16T21:17:20.864Z,2.83
2018-08-16T21:19:50.193Z,3.23
2018-08-16T21:22:19.431Z,2.90
2018-08-16T21:24:51.998Z,2.93
2018-08-16T21:27:22.886Z,3.27
2018-08-16T21:29:53.303Z,3.37
2018-08-16T21:32:23.343Z,3.80
2018-08-16T21:34:53.411Z,3.83
2018-08-16T21:37:22.782Z,3.27
2018-08-16T21:39:51.799Z,3.10
2018-08-16T21:42:21.145Z,3.30
2018-08-16T21:44:50.494Z,3.23
2018-08-16T21:47:20.051Z,3.10
2018-08-16T21:49:49.216Z,3.77
2018-08-16T21:52:18.265Z,2.57
2018-08-16T21:54:47.578Z,3.80
2018-08-16T21:57:17.002Z,3.57
2018-08-16T21:59:46.638Z,3.20
2018-08-16T22:02:15.851Z,3.33
2018-08-16T22:04:44.876Z,2.87
2018-08-16T22:07:26.410Z,3.63
2018-08-16T22:09:55.447Z,3.23
2018-08-16T22:12:24.482Z,2.80
2018-08-16T22:14:53.537Z,3.40
2018-08-16T22:17:22.837Z,3.43
2018-08-16T22:19:52.254Z,3.43
2018-08-16T22:22:21.243Z,3.90
2018-08-16T22:24:50.946Z,3.03
2018-08-16T22:27:20.369Z,4.03
2018-08-16T22:29:49.863Z,3.60
2018-08-16T22:32:19.080Z,3.90
2018-08-16T22:34:48.490Z,3.10
2018-08-16T22:37:18.025Z,3.53
2018-08-16T22:39:47.501Z,2.90
2018-08-16T22:42:18.367Z,3.37
2018-08-16T22:44:47.634Z,3.83
2018-08-16T22:47:16.952Z,3.43
2018-08-16T22:49:46.075Z,2.90
2018-08-16T22:52:15.428Z,3.80
2018-08-16T22:54:44.791Z,3.47
2018-08-16T22:57:14.175Z,3.40
2018-08-16T22:59:43.770Z,3.17
2018-08-16T23:02:13.184Z,3.50
2018-08-16T23:04:42.528Z,3.23
2018-08-16T23:07:12.805Z,3.80
2018-08-16T23:09:42.220Z,4.33
2018-08-16T23:12:11.492Z,3.80
2018-08-16T23:14:41.064Z,3.97
2018-08-16T23:17:10.473Z,3.90
2018-08-16T23:19:39.803Z,3.43
2018-08-16T23:22:09.126Z,2.93
2018-08-16T23:24:38.411Z,3.70
2018-08-16T23:27:07.759Z,3.50
2018-08-16T23:29:37.417Z,3.70
2018-08-16T23:32:06.875Z,3.80
2018-08-16T23:34:36.244Z,4.10
2018-08-16T23:37:05.881Z,4.37
2018-08-16T23:39:35.264Z,4.23
2018-08-16T23:42:04.840Z,4.07
2018-08-16T23:44:34.074Z,4.03
2018-08-16T23:47:03.550Z,3.50
2018-08-16T23:49:32.715Z,3.90
2018-08-16T23:52:02.129Z,4.10
2018-08-16T23:54:31.506Z,3.67
2018-08-16T23:57:00.720Z,4.00
2018-08-16T23:59:30.111Z,3.67
